Time;durP1;ratioP1;P1;durP2;ratioP2;P2;SDS_P1;SDS_P2;PMS_P1;PMS_P2;Temp;Humidity;BMP_temperature;BMP_pressure;BME280_temperature;BME280_humidity;BME280_pressure;Samples;Min_cycle;Max_cycle;Signal;HPM_P1;HPM_P2
2020/12/03 00:01:08;;;;;;;;;;;19.30;39.10;;;;;;491663;240;1135;-53
2020/12/03 00:03:09;;;;;;;;;;;19.30;39.00;;;;;;491643;240;2229;-53
2020/12/03 00:05:11;;;;;;;;;;;19.30;39.10;;;;;;491593;240;1387;-53
2020/12/03 00:07:12;;;;;;;;;;;19.30;39.10;;;;;;491461;240;1194;-53
2020/12/03 00:09:13;;;;;;;;;;;19.40;39.10;;;;;;491498;240;1208;-53
2020/12/03 00:11:15;;;;;;;;;;;19.40;39.10;;;;;;491828;240;1336;-52
2020/12/03 00:13:16;;;;;;;;;;;19.40;39.10;;;;;;491609;240;1064;-52
2020/12/03 00:15:17;;;;;;;;;;;19.30;39.00;;;;;;491834;240;1110;-52
2020/12/03 00:17:18;;;;;;;;;;;19.30;39.00;;;;;;491540;240;1279;-52
2020/12/03 00:19:20;;;;;;;;;;;19.30;39.10;;;;;;491558;240;1080;-52
2020/12/03 00:21:21;;;;;;;;;;;19.20;39.20;;;;;;491553;239;1287;-51
2020/12/03 00:23:22;;;;;;;;;;;19.10;39.30;;;;;;491702;240;2193;-52
2020/12/03 00:25:23;;;;;;;;;;;19.10;39.50;;;;;;491775;240;1015;-52
2020/12/03 00:27:25;;;;;;;;;;;19.00;39.60;;;;;;491565;240;1218;-52
2020/12/03 00:29:26;;;;;;;;;;;19.00;39.80;;;;;;491599;240;1062;-52
2020/12/03 00:31:28;;;;;;;;;;;18.90;39.80;;;;;;491513;240;1351;-52
2020/12/03 00:33:29;;;;;;;;;;;18.90;40.00;;;;;;491528;240;1131;-53
2020/12/03 00:35:30;;;;;;;;;;;18.80;40.10;;;;;;491618;240;1062;-52
2020/12/03 00:37:32;;;;;;;;;;;18.80;40.20;;;;;;491601;240;1279;-52
2020/12/03 00:39:33;;;;;;;;;;;18.70;40.20;;;;;;491587;240;1117;-52
2020/12/03 00:41:34;;;;;;;;;;;18.70;40.40;;;;;;491561;240;1226;-52
2020/12/03 00:43:35;;;;;;;;;;;18.60;40.40;;;;;;491612;240;2204;-52
2020/12/03 00:45:37;;;;;;;;;;;18.60;40.50;;;;;;491537;240;1528;-52
2020/12/03 00:47:38;;;;;;;;;;;18.50;40.50;;;;;;491634;240;1116;-52
2020/12/03 00:49:39;;;;;;;;;;;18.50;40.60;;;;;;491541;240;1264;-52
2020/12/03 00:51:42;;;;;;;;;;;18.50;40.70;;;;;;491526;240;1193;-52
2020/12/03 00:53:42;;;;;;;;;;;18.40;40.70;;;;;;491537;240;2400;-52
2020/12/03 00:55:44;;;;;;;;;;;18.40;40.80;;;;;;491532;240;1070;-52
2020/12/03 00:57:45;;;;;;;;;;;18.40;40.90;;;;;;491745;240;989;-52
2020/12/03 00:59:46;;;;;;;;;;;18.30;40.90;;;;;;491547;240;1080;-52
2020/12/03 01:01:48;;;;;;;;;;;18.30;40.90;;;;;;491898;240;1044;-52
2020/12/03 01:03:49;;;;;;;;;;;18.30;41.00;;;;;;491621;240;2192;-53
2020/12/03 01:05:50;;;;;;;;;;;18.20;41.10;;;;;;491604;240;1050;-52
2020/12/03 01:07:51;;;;;;;;;;;18.20;41.20;;;;;;491604;240;1192;-52
2020/12/03 01:09:53;;;;;;;;;;;18.10;41.20;;;;;;491761;240;1055;-52
2020/12/03 01:11:54;;;;;;;;;;;18.10;41.30;;;;;;491595;240;1192;-52
2020/12/03 01:13:55;;;;;;;;;;;18.10;41.30;;;;;;491970;240;1073;-53
2020/12/03 01:15:57;;;;;;;;;;;18.10;41.30;;;;;;491639;240;1075;-52
2020/12/03 01:17:58;;;;;;;;;;;18.00;41.40;;;;;;491639;240;1305;-52
2020/12/03 01:19:59;;;;;;;;;;;18.00;41.40;;;;;;491631;240;1081;-52
2020/12/03 01:22:01;;;;;;;;;;;18.00;41.40;;;;;;491613;240;1250;-52
2020/12/03 01:24:02;;;;;;;;;;;18.00;41.50;;;;;;491615;240;2179;-52
2020/12/03 01:26:03;;;;;;;;;;;18.00;41.50;;;;;;491607;240;1077;-52
2020/12/03 01:28:04;;;;;;;;;;;18.00;41.60;;;;;;491643;240;1035;-53
2020/12/03 01:30:06;;;;;;;;;;;17.90;41.50;;;;;;491565;240;1044;-53
2020/12/03 01:32:07;;;;;;;;;;;17.90;41.60;;;;;;491627;240;977;-52
2020/12/03 01:34:08;;;;;;;;;;;17.90;41.70;;;;;;491577;240;1087;-52
2020/12/03 01:36:09;;;;;;;;;;;17.90;41.70;;;;;;491599;240;1246;-53
2020/12/03 01:38:11;;;;;;;;;;;17.90;41.70;;;;;;491579;240;1303;-52
2020/12/03 01:40:12;;;;;;;;;;;17.90;41.70;;;;;;491536;240;1025;-52
2020/12/03 01:42:13;;;;;;;;;;;17.80;41.70;;;;;;491587;240;1096;-53
2020/12/03 01:44:15;;;;;;;;;;;17.80;41.70;;;;;;491582;240;2180;-52
2020/12/03 01:46:16;;;;;;;;;;;17.80;41.80;;;;;;491704;240;1073;-52
2020/12/03 01:48:17;;;;;;;;;;;17.80;41.80;;;;;;491531;240;1342;-53
2020/12/03 01:50:18;;;;;;;;;;;17.80;41.80;;;;;;491591;240;1224;-52
2020/12/03 01:52:20;;;;;;;;;;;17.70;41.80;;;;;;491692;240;1227;-52
2020/12/03 01:54:21;;;;;;;;;;;17.70;41.80;;;;;;491662;240;1099;-52
2020/12/03 01:56:22;;;;;;;;;;;17.70;41.90;;;;;;491552;240;1264;-52
2020/12/03 01:58:24;;;;;;;;;;;17.70;41.90;;;;;;491517;240;1290;-52
2020/12/03 02:00:25;;;;;;;;;;;17.70;41.90;;;;;;491599;240;1075;-52
2020/12/03 02:02:26;;;;;;;;;;;17.70;41.90;;;;;;491870;240;1272;-53
2020/12/03 02:04:27;;;;;;;;;;;17.70;41.90;;;;;;491595;240;2192;-53
2020/12/03 02:06:29;;;;;;;;;;;17.60;41.90;;;;;;491560;240;1103;-52
2020/12/03 02:08:30;;;;;;;;;;;17.60;41.90;;;;;;491626;240;1236;-52
2020/12/03 02:10:32;;;;;;;;;;;17.60;42.00;;;;;;491556;240;1042;-52
2020/12/03 02:12:33;;;;;;;;;;;17.60;42.00;;;;;;491490;240;1300;-53
2020/12/03 02:14:34;;;;;;;;;;;17.60;42.00;;;;;;491596;240;1321;-52
2020/12/03 02:16:35;;;;;;;;;;;17.50;42.00;;;;;;491512;240;1053;-52
2020/12/03 02:18:37;;;;;;;;;;;17.50;42.00;;;;;;491490;240;1263;-52
2020/12/03 02:20:38;;;;;;;;;;;17.50;42.00;;;;;;491518;240;1130;-52
2020/12/03 02:22:39;;;;;;;;;;;17.50;42.00;;;;;;491502;240;1336;-52
2020/12/03 02:24:40;;;;;;;;;;;17.50;42.10;;;;;;491581;240;2171;-52
2020/12/03 02:26:42;;;;;;;;;;;17.50;42.10;;;;;;491506;240;1305;-52
2020/12/03 02:28:43;;;;;;;;;;;17.50;42.10;;;;;;491566;240;1226;-52
2020/12/03 02:30:44;;;;;;;;;;;17.50;42.10;;;;;;491589;240;1213;-52
2020/12/03 02:32:46;;;;;;;;;;;17.50;42.20;;;;;;491833;240;1407;-52
2020/12/03 02:34:47;;;;;;;;;;;17.50;42.20;;;;;;491690;240;1212;-52
2020/12/03 02:36:48;;;;;;;;;;;17.50;42.20;;;;;;491589;240;1013;-52
2020/12/03 02:38:50;;;;;;;;;;;17.50;42.20;;;;;;491627;240;1187;-53
2020/12/03 02:40:53;;;;;;;;;;;17.50;42.20;;;;;;491612;240;1052;-52
2020/12/03 02:42:54;;;;;;;;;;;17.50;42.20;;;;;;491553;240;1198;-51
2020/12/03 02:44:55;;;;;;;;;;;17.50;42.20;;;;;;491574;240;2191;-52
2020/12/03 02:46:57;;;;;;;;;;;17.40;40.90;;;;;;491574;240;1157;-52
2020/12/03 02:48:58;;;;;;;;;;;17.40;42.20;;;;;;491621;240;1112;-52
2020/12/03 02:50:59;;;;;;;;;;;17.40;42.20;;;;;;491607;240;1037;-53
2020/12/03 02:53:00;;;;;;;;;;;17.40;42.20;;;;;;491474;240;1308;-52
2020/12/03 02:55:02;;;;;;;;;;;17.40;42.20;;;;;;491503;240;1068;-52
2020/12/03 02:57:03;;;;;;;;;;;17.40;42.20;;;;;;491498;240;1135;-52
2020/12/03 02:59:04;;;;;;;;;;;17.40;42.20;;;;;;491581;240;1203;-52
2020/12/03 03:01:05;;;;;;;;;;;17.40;42.20;;;;;;491577;240;1366;-52
2020/12/03 03:03:07;;;;;;;;;;;17.40;42.30;;;;;;491672;240;1202;-52
2020/12/03 03:05:08;;;;;;;;;;;17.40;42.20;;;;;;491588;240;2188;-52
2020/12/03 03:07:10;;;;;;;;;;;17.40;42.30;;;;;;491637;240;1205;-52
2020/12/03 03:09:11;;;;;;;;;;;17.40;42.30;;;;;;491565;240;1263;-52
2020/12/03 03:11:12;;;;;;;;;;;17.40;42.30;;;;;;491567;240;1190;-52
2020/12/03 03:13:14;;;;;;;;;;;17.30;42.20;;;;;;491616;240;1170;-52
2020/12/03 03:15:15;;;;;;;;;;;17.30;42.20;;;;;;491788;240;1145;-52
2020/12/03 03:17:16;;;;;;;;;;;17.30;42.20;;;;;;491734;240;1089;-53
2020/12/03 03:19:17;;;;;;;;;;;17.40;42.30;;;;;;491740;240;1066;-53
2020/12/03 03:21:19;;;;;;;;;;;17.30;42.20;;;;;;491625;240;1106;-52
2020/12/03 03:23:20;;;;;;;;;;;17.30;42.30;;;;;;491569;238;1330;-52
2020/12/03 03:25:21;;;;;;;;;;;17.30;42.30;;;;;;491689;240;2199;-52
2020/12/03 03:27:22;;;;;;;;;;;17.30;42.30;;;;;;491822;240;1141;-52
2020/12/03 03:29:24;;;;;;;;;;;17.30;42.30;;;;;;491608;240;1067;-52
2020/12/03 03:31:25;;;;;;;;;;;17.30;42.30;;;;;;491614;240;1046;-52
2020/12/03 03:33:26;;;;;;;;;;;17.30;42.30;;;;;;491674;240;1003;-53
2020/12/03 03:35:28;;;;;;;;;;;17.30;42.40;;;;;;491588;240;1278;-52
2020/12/03 03:37:29;;;;;;;;;;;17.30;42.30;;;;;;491729;240;1044;-52
2020/12/03 03:39:30;;;;;;;;;;;17.30;42.30;;;;;;491721;240;1164;-52
2020/12/03 03:41:31;;;;;;;;;;;17.30;42.30;;;;;;491566;240;1075;-51
2020/12/03 03:43:33;;;;;;;;;;;17.30;42.30;;;;;;491560;240;1097;-53
2020/12/03 03:45:34;;;;;;;;;;;17.30;42.40;;;;;;491565;240;2180;-52
2020/12/03 03:47:35;;;;;;;;;;;17.20;42.30;;;;;;491705;240;1304;-52
2020/12/03 03:49:36;;;;;;;;;;;17.20;42.30;;;;;;491785;240;1227;-52
2020/12/03 03:51:38;;;;;;;;;;;17.20;42.30;;;;;;491618;240;1341;-53
2020/12/03 03:53:39;;;;;;;;;;;17.20;42.30;;;;;;491747;240;1154;-53
2020/12/03 03:55:40;;;;;;;;;;;17.20;42.30;;;;;;491575;240;1234;-53
2020/12/03 03:57:42;;;;;;;;;;;17.20;42.30;;;;;;491684;240;1281;-53
2020/12/03 03:59:48;;;;;;;;;;;17.30;42.30;;;;;;491631;240;1237;-53
2020/12/03 04:01:44;;;;;;;;;;;17.30;42.30;;;;;;491521;242;2253;-52
2020/12/03 04:03:45;;;;;;;;;;;17.30;42.20;;;;;;491548;240;2191;-52
2020/12/03 04:05:47;;;;;;;;;;;17.30;42.20;;;;;;491485;240;1156;-52
2020/12/03 04:07:48;;;;;;;;;;;17.30;42.20;;;;;;491550;240;1150;-52
2020/12/03 04:09:49;;;;;;;;;;;17.30;42.20;;;;;;491683;240;1189;-53
2020/12/03 04:11:51;;;;;;;;;;;17.30;42.10;;;;;;491611;240;1198;-53
2020/12/03 04:13:52;;;;;;;;;;;17.30;42.00;;;;;;491577;240;1020;-52
2020/12/03 04:15:53;;;;;;;;;;;17.40;42.00;;;;;;491562;240;1201;-53
2020/12/03 04:17:54;;;;;;;;;;;17.40;41.90;;;;;;491554;240;1063;-52
2020/12/03 04:19:56;;;;;;;;;;;17.40;41.90;;;;;;491642;240;1025;-53
2020/12/03 04:21:57;;;;;;;;;;;17.40;41.80;;;;;;491546;240;1043;-52
2020/12/03 04:23:58;;;;;;;;;;;17.50;41.80;;;;;;491528;240;2184;-53
2020/12/03 04:25:59;;;;;;;;;;;17.50;41.70;;;;;;491496;240;1226;-53
2020/12/03 04:28:01;;;;;;;;;;;17.50;41.70;;;;;;491524;240;1057;-52
2020/12/03 04:30:02;;;;;;;;;;;17.50;41.60;;;;;;491538;240;1131;-52
2020/12/03 04:32:03;;;;;;;;;;;17.60;41.60;;;;;;491543;240;1192;-52
2020/12/03 04:34:05;;;;;;;;;;;17.60;41.50;;;;;;491702;240;1058;-52
2020/12/03 04:36:06;;;;;;;;;;;17.60;41.50;;;;;;491760;240;1224;-52
2020/12/03 04:38:07;;;;;;;;;;;17.60;41.50;;;;;;491560;240;1088;-52
2020/12/03 04:40:09;;;;;;;;;;;17.70;41.50;;;;;;491544;240;1284;-53
2020/12/03 04:42:10;;;;;;;;;;;17.70;41.40;;;;;;491515;240;1114;-53
2020/12/03 04:44:11;;;;;;;;;;;17.70;41.40;;;;;;491643;240;2211;-52
2020/12/03 04:46:12;;;;;;;;;;;17.80;41.30;;;;;;491770;240;1118;-52
2020/12/03 04:48:14;;;;;;;;;;;17.80;41.30;;;;;;491551;240;1039;-52
2020/12/03 04:50:15;;;;;;;;;;;17.80;41.20;;;;;;491539;240;1073;-52
2020/12/03 04:52:17;;;;;;;;;;;17.80;41.20;;;;;;491554;240;1090;-53
2020/12/03 04:54:18;;;;;;;;;;;17.80;41.10;;;;;;491579;240;2353;-53
2020/12/03 04:56:19;;;;;;;;;;;17.90;41.10;;;;;;491702;240;1147;-53
2020/12/03 04:58:20;;;;;;;;;;;17.90;41.10;;;;;;491676;240;1223;-53
2020/12/03 05:00:21;;;;;;;;;;;17.90;41.00;;;;;;491609;240;1150;-52
2020/12/03 05:02:23;;;;;;;;;;;17.90;41.00;;;;;;491593;240;1049;-53
2020/12/03 05:04:24;;;;;;;;;;;17.90;40.90;;;;;;491570;240;2187;-53
2020/12/03 05:06:25;;;;;;;;;;;18.00;41.00;;;;;;491509;240;1228;-53
2020/12/03 05:08:27;;;;;;;;;;;18.00;40.90;;;;;;491585;240;1046;-52
2020/12/03 05:10:28;;;;;;;;;;;18.00;40.90;;;;;;491513;240;1206;-53
2020/12/03 05:12:29;;;;;;;;;;;18.00;40.80;;;;;;491724;240;1081;-52
2020/12/03 05:14:31;;;;;;;;;;;18.10;40.80;;;;;;491538;240;1115;-52
2020/12/03 05:16:32;;;;;;;;;;;18.10;40.80;;;;;;491707;240;1090;-52
2020/12/03 05:18:33;;;;;;;;;;;18.10;40.70;;;;;;491513;240;1094;-53
2020/12/03 05:20:35;;;;;;;;;;;18.10;40.70;;;;;;491592;240;1057;-53
2020/12/03 05:22:37;;;;;;;;;;;18.10;40.70;;;;;;491464;240;1081;-52
2020/12/03 05:24:38;;;;;;;;;;;18.20;40.70;;;;;;491514;240;2183;-53
2020/12/03 05:26:39;;;;;;;;;;;18.20;40.60;;;;;;491577;240;1121;-52
2020/12/03 05:28:40;;;;;;;;;;;18.20;40.60;;;;;;491519;240;1103;-52
2020/12/03 05:30:42;;;;;;;;;;;18.20;40.60;;;;;;491626;240;1031;-53
2020/12/03 05:32:43;;;;;;;;;;;18.20;40.50;;;;;;491478;240;1118;-52
2020/12/03 05:34:44;;;;;;;;;;;18.20;40.50;;;;;;491520;240;1041;-52
2020/12/03 05:36:46;;;;;;;;;;;18.30;40.50;;;;;;491485;240;1054;-53
2020/12/03 05:38:47;;;;;;;;;;;18.30;40.50;;;;;;491521;240;1079;-52
2020/12/03 05:40:48;;;;;;;;;;;18.30;40.50;;;;;;491350;240;1203;-53
2020/12/03 05:42:49;;;;;;;;;;;18.30;40.40;;;;;;491399;240;1060;-52
2020/12/03 05:44:51;;;;;;;;;;;18.30;40.40;;;;;;491599;240;2188;-53
2020/12/03 05:46:52;;;;;;;;;;;18.40;40.40;;;;;;491618;241;1645;-53
2020/12/03 05:48:53;;;;;;;;;;;18.40;40.40;;;;;;491515;240;1197;-52
2020/12/03 05:50:55;;;;;;;;;;;18.40;40.40;;;;;;491504;240;1133;-53
2020/12/03 05:52:56;;;;;;;;;;;18.40;40.30;;;;;;491450;240;1202;-52
2020/12/03 05:54:58;;;;;;;;;;;18.40;40.30;;;;;;491621;240;1228;-52
2020/12/03 05:56:59;;;;;;;;;;;18.40;40.30;;;;;;491451;240;1099;-52
2020/12/03 05:59:00;;;;;;;;;;;18.40;40.30;;;;;;491455;240;1375;-52
2020/12/03 06:01:02;;;;;;;;;;;18.50;40.30;;;;;;491383;240;1058;-52
2020/12/03 06:03:04;;;;;;;;;;;18.50;40.20;;;;;;491332;240;1211;-53
2020/12/03 06:05:04;;;;;;;;;;;18.50;40.20;;;;;;491321;240;2244;-53
2020/12/03 06:07:06;;;;;;;;;;;18.50;40.20;;;;;;491253;240;1375;-53
2020/12/03 06:09:07;;;;;;;;;;;18.50;40.20;;;;;;491343;240;1085;-53
2020/12/03 06:11:08;;;;;;;;;;;18.50;40.10;;;;;;491429;240;1204;-53
2020/12/03 06:13:09;;;;;;;;;;;18.60;40.20;;;;;;491397;240;1288;-52
2020/12/03 06:15:11;;;;;;;;;;;18.60;40.20;;;;;;491441;240;1083;-53
2020/12/03 06:17:12;;;;;;;;;;;18.60;40.10;;;;;;491414;240;1070;-52
2020/12/03 06:19:13;;;;;;;;;;;18.60;40.10;;;;;;491375;240;1237;-53
2020/12/03 06:21:14;;;;;;;;;;;18.60;40.10;;;;;;491323;240;1073;-53
2020/12/03 06:23:16;;;;;;;;;;;18.60;40.10;;;;;;491392;240;1195;-53
2020/12/03 06:25:17;;;;;;;;;;;18.70;40.10;;;;;;491267;240;2195;-53
2020/12/03 06:27:19;;;;;;;;;;;18.70;40.10;;;;;;491254;240;1074;-53
2020/12/03 06:29:20;;;;;;;;;;;18.70;40.10;;;;;;491367;240;1244;-53
2020/12/03 06:31:22;;;;;;;;;;;18.60;40.00;;;;;;491355;240;1064;-53
2020/12/03 06:33:23;;;;;;;;;;;18.70;40.00;;;;;;491279;240;1166;-52
2020/12/03 06:35:24;;;;;;;;;;;18.70;40.00;;;;;;491158;240;1158;-53
2020/12/03 06:37:26;;;;;;;;;;;18.70;39.90;;;;;;491190;240;1049;-52
2020/12/03 06:39:27;;;;;;;;;;;18.70;39.90;;;;;;491313;240;1075;-53
2020/12/03 06:41:29;;;;;;;;;;;18.80;40.00;;;;;;491275;240;1194;-53
2020/12/03 06:43:30;;;;;;;;;;;18.80;40.00;;;;;;491244;240;1066;-52
2020/12/03 06:45:31;;;;;;;;;;;18.80;39.90;;;;;;491156;240;2194;-53
2020/12/03 06:47:33;;;;;;;;;;;18.80;40.10;;;;;;491191;240;1109;-53
2020/12/03 06:49:34;;;;;;;;;;;18.90;40.00;;;;;;491286;240;1085;-53
2020/12/03 06:51:35;;;;;;;;;;;18.90;39.90;;;;;;491278;240;1058;-52
2020/12/03 06:53:37;;;;;;;;;;;18.90;39.70;;;;;;491266;240;1046;-53
2020/12/03 06:55:38;;;;;;;;;;;19.00;39.70;;;;;;491029;240;1208;-52
2020/12/03 06:57:39;;;;;;;;;;;19.00;38.20;;;;;;491090;240;1196;-52
2020/12/03 06:59:40;;;;;;;;;;;19.00;39.50;;;;;;491339;240;1085;-52
2020/12/03 07:01:42;;;;;;;;;;;19.00;39.60;;;;;;491203;240;1225;-52
2020/12/03 07:03:43;;;;;;;;;;;18.90;39.70;;;;;;491231;240;1267;-53
2020/12/03 07:05:45;;;;;;;;;;;18.90;39.80;;;;;;491074;240;2207;-53
2020/12/03 07:07:46;;;;;;;;;;;18.80;39.90;;;;;;491119;240;1095;-53
2020/12/03 07:09:48;;;;;;;;;;;18.80;40.00;;;;;;491217;240;1123;-52
2020/12/03 07:11:49;;;;;;;;;;;18.70;40.10;;;;;;491149;240;1218;-52
2020/12/03 07:13:50;;;;;;;;;;;18.70;40.20;;;;;;491106;240;1210;-53
2020/12/03 07:15:52;;;;;;;;;;;18.70;40.20;;;;;;490988;240;1069;-52
2020/12/03 07:17:53;;;;;;;;;;;18.60;40.30;;;;;;491006;240;1068;-52
2020/12/03 07:19:55;;;;;;;;;;;18.50;40.40;;;;;;490969;240;1066;-52
2020/12/03 07:21:56;;;;;;;;;;;18.50;40.50;;;;;;491068;240;1190;-53
2020/12/03 07:23:57;;;;;;;;;;;18.50;40.60;;;;;;491064;240;1224;-52
2020/12/03 07:25:58;;;;;;;;;;;18.40;40.60;;;;;;491058;240;2200;-52
2020/12/03 07:28:00;;;;;;;;;;;18.40;39.40;;;;;;491134;240;1095;-52
2020/12/03 07:30:01;;;;;;;;;;;18.40;40.70;;;;;;491042;240;1217;-52
2020/12/03 07:32:02;;;;;;;;;;;18.30;39.50;;;;;;490955;240;1065;-52
2020/12/03 07:34:04;;;;;;;;;;;18.30;40.80;;;;;;491070;240;1134;-52
2020/12/03 07:36:05;;;;;;;;;;;18.30;40.80;;;;;;490937;240;1225;-52
2020/12/03 07:38:06;;;;;;;;;;;18.30;39.60;;;;;;490509;240;1700;-52
2020/12/03 07:40:07;;;;;;;;;;;18.30;40.80;;;;;;490878;240;1180;-53
2020/12/03 07:42:09;;;;;;;;;;;18.30;40.80;;;;;;491071;240;1235;-52
2020/12/03 07:44:10;;;;;;;;;;;18.40;40.70;;;;;;491019;240;1088;-52
2020/12/03 07:46:11;;;;;;;;;;;18.40;40.60;;;;;;490463;243;2188;-53
2020/12/03 07:48:12;;;;;;;;;;;18.40;40.50;;;;;;490928;240;1069;-52
2020/12/03 07:50:14;;;;;;;;;;;18.40;40.50;;;;;;491047;240;1042;-52
2020/12/03 07:52:15;;;;;;;;;;;18.40;39.20;;;;;;490874;240;1087;-53
2020/12/03 07:54:16;;;;;;;;;;;18.40;40.50;;;;;;490914;240;1223;-53
2020/12/03 07:56:18;;;;;;;;;;;18.40;40.60;;;;;;490851;240;1114;-52
2020/12/03 07:58:19;;;;;;;;;;;18.30;40.60;;;;;;490892;240;1164;-52
2020/12/03 08:00:20;;;;;;;;;;;18.30;40.70;;;;;;490908;240;1046;-51
2020/12/03 08:02:22;;;;;;;;;;;18.30;40.80;;;;;;491164;240;1297;-52
2020/12/03 08:04:23;;;;;;;;;;;18.20;40.80;;;;;;490984;240;1167;-52
2020/12/03 08:06:24;;;;;;;;;;;18.20;40.90;;;;;;490850;240;2193;-52
2020/12/03 08:08:26;;;;;;;;;;;18.20;40.90;;;;;;490715;240;1064;-51
2020/12/03 08:10:27;;;;;;;;;;;18.10;40.90;;;;;;490848;240;1166;-52
2020/12/03 08:12:30;;;;;;;;;;;18.10;41.00;;;;;;491083;240;1114;-53
2020/12/03 08:14:30;;;;;;;;;;;18.10;41.10;;;;;;490904;241;1902;-52
2020/12/03 08:16:31;;;;;;;;;;;18.10;41.10;;;;;;491074;240;1292;-52
2020/12/03 08:18:32;;;;;;;;;;;18.00;41.10;;;;;;491003;240;1110;-53
2020/12/03 08:20:33;;;;;;;;;;;18.00;39.90;;;;;;490946;240;1249;-52
2020/12/03 08:22:35;;;;;;;;;;;18.00;41.30;;;;;;490971;240;1149;-52
2020/12/03 08:24:36;;;;;;;;;;;18.00;41.30;;;;;;490983;240;1287;-52
2020/12/03 08:26:37;;;;;;;;;;;17.90;40.00;;;;;;490958;240;2200;-53
2020/12/03 08:28:38;;;;;;;;;;;17.90;41.30;;;;;;490942;240;1087;-53
2020/12/03 08:30:41;;;;;;;;;;;17.90;41.40;;;;;;490765;240;1277;-52
2020/12/03 08:32:41;;;;;;;;;;;17.80;40.10;;;;;;490713;240;2125;-53
2020/12/03 08:34:42;;;;;;;;;;;17.80;40.10;;;;;;490771;240;1070;-52
2020/12/03 08:36:44;;;;;;;;;;;17.90;40.20;;;;;;490795;240;1079;-52
2020/12/03 08:38:45;;;;;;;;;;;17.80;41.50;;;;;;490741;240;1107;-52
2020/12/03 08:40:47;;;;;;;;;;;17.80;41.50;;;;;;490740;240;1205;-52
2020/12/03 08:42:48;;;;;;;;;;;17.80;40.20;;;;;;490739;240;2187;-52
2020/12/03 08:44:52;;;;;;;;;;;17.80;41.50;;;;;;490878;240;1050;-52
2020/12/03 08:46:51;;;;;;;;;;;17.80;41.50;;;;;;490676;242;2204;-52
2020/12/03 08:48:52;;;;;;;;;;;17.70;40.20;;;;;;490770;240;2118;-52
2020/12/03 08:50:53;;;;;;;;;;;17.80;40.30;;;;;;490821;240;1161;-53
2020/12/03 08:52:54;;;;;;;;;;;17.70;40.30;;;;;;490700;240;1210;-52
2020/12/03 08:54:55;;;;;;;;;;;17.70;41.60;;;;;;490938;240;1123;-52
2020/12/03 08:56:57;;;;;;;;;;;17.70;41.60;;;;;;490788;240;1172;-52
2020/12/03 08:58:58;;;;;;;;;;;17.70;41.60;;;;;;490920;240;1077;-52
2020/12/03 09:01:00;;;;;;;;;;;17.70;41.60;;;;;;490883;240;1263;-53
2020/12/03 09:03:01;;;;;;;;;;;17.70;40.30;;;;;;490627;240;1162;-52
2020/12/03 09:05:02;;;;;;;;;;;17.70;41.60;;;;;;490962;241;1320;-52
2020/12/03 09:07:04;;;;;;;;;;;17.70;40.20;;;;;;490658;240;2191;-52
2020/12/03 09:09:05;;;;;;;;;;;17.70;40.20;;;;;;490715;240;1274;-52
2020/12/03 09:11:07;;;;;;;;;;;17.70;41.50;;;;;;490847;240;1087;-52
2020/12/03 09:13:08;;;;;;;;;;;17.70;41.50;;;;;;490799;240;1187;-52
2020/12/03 09:15:09;;;;;;;;;;;17.70;41.60;;;;;;490771;240;1130;-52
2020/12/03 09:17:10;;;;;;;;;;;17.70;40.30;;;;;;490673;241;1340;-52
2020/12/03 09:19:12;;;;;;;;;;;17.70;41.60;;;;;;490860;240;1094;-52
2020/12/03 09:21:13;;;;;;;;;;;17.70;41.70;;;;;;490872;240;1091;-53
2020/12/03 09:23:15;;;;;;;;;;;17.70;40.40;;;;;;490786;240;1163;-52
2020/12/03 09:25:16;;;;;;;;;;;17.60;40.40;;;;;;490534;240;1068;-53
2020/12/03 09:27:17;;;;;;;;;;;17.60;41.70;;;;;;490632;240;2184;-52
2020/12/03 09:29:19;;;;;;;;;;;17.60;41.70;;;;;;490796;240;1169;-52
2020/12/03 09:31:20;;;;;;;;;;;17.60;41.70;;;;;;490666;240;1108;-52
2020/12/03 09:33:21;;;;;;;;;;;17.60;41.70;;;;;;490727;240;1199;-53
2020/12/03 09:35:22;;;;;;;;;;;17.60;40.40;;;;;;490879;240;1205;-52
2020/12/03 09:37:24;;;;;;;;;;;17.60;40.50;;;;;;491134;240;1078;-52
2020/12/03 09:39:25;;;;;;;;;;;17.60;41.70;;;;;;490829;241;1101;-51
2020/12/03 09:41:26;;;;;;;;;;;17.60;40.50;;;;;;490805;240;1389;-52
2020/12/03 09:43:28;;;;;;;;;;;17.60;41.70;;;;;;490734;240;1198;-52
2020/12/03 09:45:32;;;;;;;;;;;17.60;41.80;;;;;;490865;240;1297;-52
2020/12/03 09:47:30;;;;;;;;;;;17.60;41.70;;;;;;491688;240;2192;-52
2020/12/03 09:49:32;;;;;;;;;;;17.60;41.70;;;;;;491283;240;1066;-52
2020/12/03 09:51:33;;;;;;;;;;;17.60;41.70;;;;;;490838;240;1352;-52
2020/12/03 09:53:34;;;;;;;;;;;17.60;41.60;;;;;;490816;240;1098;-52
2020/12/03 09:55:35;;;;;;;;;;;17.60;41.60;;;;;;490670;240;1323;-52
2020/12/03 09:57:37;;;;;;;;;;;17.60;41.60;;;;;;490709;240;1124;-52
2020/12/03 09:59:38;;;;;;;;;;;17.60;41.70;;;;;;490782;240;1136;-52
2020/12/03 10:01:41;;;;;;;;;;;17.60;41.70;;;;;;490877;240;1173;-52
2020/12/03 10:03:41;;;;;;;;;;;17.60;41.70;;;;;;490775;240;2037;-52
2020/12/03 10:05:42;;;;;;;;;;;17.60;41.70;;;;;;490964;240;1250;-52
2020/12/03 10:07:44;;;;;;;;;;;17.60;40.40;;;;;;490813;240;2195;-52
2020/12/03 10:09:45;;;;;;;;;;;17.50;41.70;;;;;;490854;240;1134;-52
2020/12/03 10:11:46;;;;;;;;;;;17.50;40.40;;;;;;490762;240;1199;-52
2020/12/03 10:13:48;;;;;;;;;;;17.50;40.40;;;;;;490846;240;1221;-52
2020/12/03 10:15:49;;;;;;;;;;;17.50;40.40;;;;;;490889;240;1220;-52
2020/12/03 10:17:50;;;;;;;;;;;17.50;40.30;;;;;;490880;240;1287;-52
2020/12/03 10:19:51;;;;;;;;;;;17.50;41.60;;;;;;490816;240;1145;-53
2020/12/03 10:21:53;;;;;;;;;;;17.50;41.60;;;;;;490699;240;1130;-52
2020/12/03 10:23:54;;;;;;;;;;;17.50;41.60;;;;;;490663;238;1152;-52
2020/12/03 10:25:55;;;;;;;;;;;17.50;41.60;;;;;;491021;240;2236;-52
2020/12/03 10:27:56;;;;;;;;;;;17.60;41.50;;;;;;490834;240;1111;-52
2020/12/03 10:29:58;;;;;;;;;;;17.70;40.00;;;;;;490908;240;1219;-52
2020/12/03 10:31:59;;;;;;;;;;;17.70;41.30;;;;;;490898;240;1184;-52
2020/12/03 10:34:01;;;;;;;;;;;17.60;41.20;;;;;;490837;240;1119;-51
2020/12/03 10:36:02;;;;;;;;;;;17.70;41.30;;;;;;490757;240;1081;-52
2020/12/03 10:38:03;;;;;;;;;;;17.60;41.30;;;;;;490754;240;1105;-53
2020/12/03 10:40:04;;;;;;;;;;;17.70;40.00;;;;;;490714;240;1070;-52
2020/12/03 10:42:06;;;;;;;;;;;17.60;41.30;;;;;;490578;240;1209;-53
2020/12/03 10:44:07;;;;;;;;;;;17.60;41.30;;;;;;490684;240;1294;-53
2020/12/03 10:46:10;;;;;;;;;;;17.60;40.00;;;;;;490697;240;2136;-53
2020/12/03 10:48:12;;;;;;;;;;;17.60;40.10;;;;;;490714;240;1145;-53
2020/12/03 10:50:12;;;;;;;;;;;17.60;40.10;;;;;;490839;241;2144;-53
2020/12/03 10:52:14;;;;;;;;;;;17.60;40.10;;;;;;490740;240;1581;-53
2020/12/03 10:54:15;;;;;;;;;;;17.60;40.10;;;;;;490913;240;1245;-52
2020/12/03 10:56:16;;;;;;;;;;;17.50;41.30;;;;;;490865;240;1125;-52
2020/12/03 10:58:19;;;;;;;;;;;17.60;40.10;;;;;;490911;240;1098;-52
2020/12/03 11:00:19;;;;;;;;;;;17.50;41.30;;;;;;490896;241;2220;-52
2020/12/03 11:02:21;;;;;;;;;;;17.50;40.10;;;;;;490803;240;1180;-52
2020/12/03 11:04:23;;;;;;;;;;;17.50;41.40;;;;;;490704;240;1073;-51
2020/12/03 11:06:23;;;;;;;;;;;17.50;41.40;;;;;;490696;241;2420;-52
2020/12/03 11:08:24;;;;;;;;;;;17.50;40.10;;;;;;490776;240;1181;-52
2020/12/03 11:10:26;;;;;;;;;;;17.50;41.50;;;;;;490666;240;1071;-53
2020/12/03 11:12:27;;;;;;;;;;;17.50;40.10;;;;;;490607;240;1219;-51
2020/12/03 11:14:29;;;;;;;;;;;17.50;41.40;;;;;;490758;240;1197;-52
2020/12/03 11:16:30;;;;;;;;;;;17.50;41.40;;;;;;490795;240;1109;-52
2020/12/03 11:18:31;;;;;;;;;;;17.50;41.40;;;;;;490947;240;1314;-52
2020/12/03 11:20:32;;;;;;;;;;;17.50;41.40;;;;;;490757;240;1213;-52
2020/12/03 11:22:34;;;;;;;;;;;17.50;41.40;;;;;;490758;240;2340;-52
2020/12/03 11:24:35;;;;;;;;;;;17.50;40.10;;;;;;490933;240;1145;-53
2020/12/03 11:26:37;;;;;;;;;;;17.50;41.40;;;;;;490933;240;2175;-52
2020/12/03 11:28:40;;;;;;;;;;;17.50;41.40;;;;;;490906;240;1324;-53
2020/12/03 11:30:39;;;;;;;;;;;17.50;40.10;;;;;;490689;242;1740;-52
2020/12/03 11:32:40;;;;;;;;;;;17.50;41.40;;;;;;490708;240;1209;-52
2020/12/03 11:34:42;;;;;;;;;;;17.50;41.40;;;;;;490882;240;1120;-52
2020/12/03 11:36:44;;;;;;;;;;;17.50;40.10;;;;;;490935;240;1111;-52
2020/12/03 11:38:45;;;;;;;;;;;17.50;41.40;;;;;;490882;240;1122;-53
2020/12/03 11:40:48;;;;;;;;;;;17.50;41.40;;;;;;490774;240;1073;-52
2020/12/03 11:42:54;;;;;;;;;;;17.50;40.10;;;;;;490587;242;2305;-52
2020/12/03 11:45:19;;;;;;;;;;;17.50;40.00;;;;;;490652;241;2187;-52
2020/12/03 11:47:33;;;;;;;;;;;17.50;40.00;;;;;;490362;241;2181;-52
2020/12/03 11:49:23;;;;;;;;;;;17.50;39.90;;;;;;490292;241;2370;-52
2020/12/03 11:51:24;;;;;;;;;;;17.60;41.20;;;;;;490529;240;1188;-52
2020/12/03 11:53:26;;;;;;;;;;;17.60;41.10;;;;;;490795;240;1311;-52
2020/12/03 11:55:26;;;;;;;;;;;17.60;39.70;;;;;;490693;240;1974;-52
2020/12/03 11:57:28;;;;;;;;;;;17.70;41.00;;;;;;490474;240;1382;-52